AZU238 SBRJ-SBCF
Flight info
| Callsign | AZU238 |
|---|---|
| Flight time | 0h 51m |
| Altitude | 29000 |
| Route | DAKDA UZ4 TOKUR |
| Aircraft | A320/M-SDE3FGHIRWY/LB1 |
Departure
| Time | 2026-05-07 23:15 |
|---|---|
| Airport | Santos Dumont Airport (SBRJ) |
Arrival
| Time | 2026-05-08 00:07 |
|---|---|
| Airport | Tancredo Neves International Airport (SBCF) |
| Time | Latitude | Longitude | Altitude | Speed | Heading |
|---|---|---|---|---|---|
| 2026-05-07 22:46 | -22.91352 | -43.16575 | 22 ft | 0 kts | 270° |
| 2026-05-07 23:05 | -22.91352 | -43.16576 | 22 ft | 0 kts | 270° |
| 2026-05-07 23:06 | -22.91352 | -43.16564 | 22 ft | 4 kts | 265° |
| 2026-05-07 23:07 | -22.91350 | -43.16535 | 22 ft | 4 kts | 276° |
| 2026-05-07 23:07 | -22.91358 | -43.16511 | 25 ft | 4 kts | 324° |
| 2026-05-07 23:07 | -22.91380 | -43.16502 | 26 ft | 1 kts | 355° |
| 2026-05-07 23:07 | -22.91385 | -43.16501 | 23 ft | 0 kts | 355° |
| 2026-05-07 23:10 | -22.91354 | -43.16504 | 23 ft | 13 kts | 355° |
| 2026-05-07 23:10 | -22.91243 | -43.16513 | 24 ft | 17 kts | 356° |
| 2026-05-07 23:10 | -22.91117 | -43.16526 | 22 ft | 19 kts | 344° |
| 2026-05-07 23:11 | -22.90985 | -43.16542 | 24 ft | 20 kts | 354° |
| 2026-05-07 23:11 | -22.90841 | -43.16551 | 22 ft | 21 kts | 11° |
| 2026-05-07 23:11 | -22.90703 | -43.16551 | 22 ft | 19 kts | 354° |
| 2026-05-07 23:11 | -22.90568 | -43.16565 | 22 ft | 16 kts | 358° |
| 2026-05-07 23:12 | -22.90504 | -43.16542 | 23 ft | 8 kts | 78° |
| 2026-05-07 23:12 | -22.90497 | -43.16488 | 23 ft | 0 kts | 84° |
| 2026-05-07 23:13 | -22.90496 | -43.16480 | 23 ft | 6 kts | 84° |
| 2026-05-07 23:13 | -22.90485 | -43.16392 | 25 ft | 14 kts | 75° |
| 2026-05-07 23:14 | -22.90483 | -43.16318 | 25 ft | 5 kts | 179° |
| 2026-05-07 23:14 | -22.90485 | -43.16318 | 25 ft | 0 kts | 186° |
| 2026-05-07 23:15 | -22.90489 | -43.16319 | 26 ft | 9 kts | 185° |
| 2026-05-07 23:15 | -22.90910 | -43.16290 | 24 ft | 110 kts | 175° |
| 2026-05-07 23:15 | -22.91941 | -43.16215 | 204 ft | 169 kts | 175° |
| 2026-05-07 23:15 | -22.93074 | -43.15923 | 1027 ft | 173 kts | 144° |
| 2026-05-07 23:16 | -22.93945 | -43.14933 | 1780 ft | 192 kts | 127° |
| 2026-05-07 23:16 | -22.94835 | -43.13744 | 2297 ft | 210 kts | 128° |
| 2026-05-07 23:16 | -22.95913 | -43.12617 | 2725 ft | 225 kts | 136° |
| 2026-05-07 23:16 | -22.97165 | -43.11424 | 3270 ft | 252 kts | 137° |
| 2026-05-07 23:17 | -22.98547 | -43.10134 | 3903 ft | 271 kts | 137° |
| 2026-05-07 23:17 | -23.00003 | -43.08777 | 4842 ft | 278 kts | 137° |
| 2026-05-07 23:17 | -23.01260 | -43.07186 | 5750 ft | 281 kts | 117° |
| 2026-05-07 23:17 | -23.01933 | -43.05231 | 6657 ft | 282 kts | 97° |
| 2026-05-07 23:18 | -23.01928 | -43.03089 | 7538 ft | 282 kts | 76° |
| 2026-05-07 23:18 | -23.01259 | -43.01134 | 8438 ft | 280 kts | 56° |
| 2026-05-07 23:18 | -22.99974 | -42.99562 | 9325 ft | 281 kts | 34° |
| 2026-05-07 23:18 | -22.98212 | -42.98668 | 10205 ft | 282 kts | 12° |
| 2026-05-07 23:19 | -22.96219 | -42.98452 | 10727 ft | 299 kts | 3° |
| 2026-05-07 23:19 | -22.94062 | -42.98346 | 11014 ft | 323 kts | 2° |
| 2026-05-07 23:19 | -22.91736 | -42.98256 | 11230 ft | 346 kts | 2° |
| 2026-05-07 23:19 | -22.89267 | -42.98167 | 11641 ft | 360 kts | 2° |
| 2026-05-07 23:20 | -22.86697 | -42.98073 | 12293 ft | 367 kts | 2° |
| 2026-05-07 23:20 | -22.84139 | -42.97971 | 12969 ft | 372 kts | 2° |
| 2026-05-07 23:20 | -22.81533 | -42.97863 | 13642 ft | 377 kts | 2° |
| 2026-05-07 23:20 | -22.78892 | -42.97746 | 14253 ft | 382 kts | 3° |
| 2026-05-07 23:21 | -22.76245 | -42.97625 | 14832 ft | 387 kts | 3° |
| 2026-05-07 23:21 | -22.73541 | -42.97501 | 15391 ft | 392 kts | 3° |
| 2026-05-07 23:21 | -22.70780 | -42.97378 | 15967 ft | 396 kts | 2° |
| 2026-05-07 23:21 | -22.67991 | -42.97256 | 16536 ft | 400 kts | 3° |
| 2026-05-07 23:22 | -22.65198 | -42.97133 | 17086 ft | 405 kts | 3° |
| 2026-05-07 23:22 | -22.62366 | -42.97009 | 17624 ft | 409 kts | 2° |
| 2026-05-07 23:22 | -22.59521 | -42.96883 | 18268 ft | 409 kts | 3° |
| 2026-05-07 23:22 | -22.56685 | -42.96756 | 18934 ft | 409 kts | 2° |
| 2026-05-07 23:23 | -22.53826 | -42.96631 | 19440 ft | 412 kts | 2° |
| 2026-05-07 23:23 | -22.50950 | -42.96507 | 19931 ft | 416 kts | 2° |
| 2026-05-07 23:23 | -22.48067 | -42.96382 | 20380 ft | 420 kts | 2° |
| 2026-05-07 23:23 | -22.45100 | -42.96251 | 20809 ft | 427 kts | 2° |
| 2026-05-07 23:24 | -22.42131 | -42.96118 | 21278 ft | 430 kts | 2° |
| 2026-05-07 23:24 | -22.39166 | -42.95987 | 21755 ft | 434 kts | 2° |
| 2026-05-07 23:24 | -22.36100 | -42.95851 | 22210 ft | 438 kts | 2° |
| 2026-05-07 23:24 | -22.33087 | -42.95716 | 22675 ft | 441 kts | 2° |
| 2026-05-07 23:25 | -22.30009 | -42.95577 | 23161 ft | 444 kts | 2° |
| 2026-05-07 23:25 | -22.26911 | -42.95441 | 23630 ft | 447 kts | 2° |
| 2026-05-07 23:25 | -22.23793 | -42.95306 | 24041 ft | 451 kts | 1° |
| 2026-05-07 23:25 | -22.20645 | -42.95170 | 24394 ft | 454 kts | 1° |
| 2026-05-07 23:26 | -22.17471 | -42.95046 | 24762 ft | 457 kts | 360° |
| 2026-05-07 23:26 | -22.14290 | -42.95235 | 25104 ft | 459 kts | 351° |
| 2026-05-07 23:26 | -22.11125 | -42.95749 | 25456 ft | 462 kts | 350° |
| 2026-05-07 23:26 | -22.07938 | -42.96279 | 25799 ft | 466 kts | 349° |
| 2026-05-07 23:27 | -22.01489 | -42.97352 | 26490 ft | 472 kts | 350° |
| 2026-05-07 23:27 | -21.98227 | -42.97890 | 26836 ft | 476 kts | 350° |
| 2026-05-07 23:27 | -21.94942 | -42.98427 | 27273 ft | 477 kts | 350° |
| 2026-05-07 23:28 | -21.91656 | -42.98964 | 27597 ft | 481 kts | 349° |
| 2026-05-07 23:28 | -21.88339 | -42.99509 | 27946 ft | 484 kts | 349° |
| 2026-05-07 23:28 | -21.84999 | -43.00058 | 28286 ft | 486 kts | 349° |
| 2026-05-07 23:28 | -21.81647 | -43.00609 | 28592 ft | 490 kts | 349° |
| 2026-05-07 23:29 | -21.78263 | -43.01168 | 28922 ft | 493 kts | 349° |
| 2026-05-07 23:29 | -21.74910 | -43.01721 | 29116 ft | 497 kts | 349° |
| 2026-05-07 23:29 | -21.67965 | -43.02865 | 29139 ft | 511 kts | 349° |
| 2026-05-07 23:30 | -21.60922 | -43.04014 | 29144 ft | 513 kts | 349° |
| 2026-05-07 23:30 | -21.53860 | -43.05164 | 29141 ft | 513 kts | 349° |
| 2026-05-07 23:31 | -21.46806 | -43.06318 | 29137 ft | 512 kts | 349° |
| 2026-05-07 23:31 | -21.39755 | -43.07463 | 29134 ft | 512 kts | 349° |
| 2026-05-07 23:32 | -21.32714 | -43.08610 | 29146 ft | 512 kts | 349° |
| 2026-05-07 23:32 | -21.25715 | -43.09753 | 29138 ft | 512 kts | 349° |
| 2026-05-07 23:33 | -21.18665 | -43.10908 | 29133 ft | 512 kts | 349° |
| 2026-05-07 23:33 | -21.11613 | -43.12062 | 29144 ft | 512 kts | 349° |
| 2026-05-07 23:34 | -21.04564 | -43.13211 | 29131 ft | 513 kts | 349° |
| 2026-05-07 23:34 | -20.97576 | -43.14342 | 29114 ft | 515 kts | 349° |
| 2026-05-07 23:35 | -20.90507 | -43.15619 | 29110 ft | 513 kts | 341° |
| 2026-05-07 23:35 | -20.87218 | -43.17049 | 29113 ft | 509 kts | 329° |
| 2026-05-07 23:35 | -20.84149 | -43.18825 | 29119 ft | 509 kts | 328° |
| 2026-05-07 23:36 | -20.77960 | -43.22498 | 29116 ft | 509 kts | 328° |
| 2026-05-07 23:36 | -20.71787 | -43.26187 | 29116 ft | 509 kts | 328° |
| 2026-05-07 23:37 | -20.65585 | -43.29855 | 29125 ft | 510 kts | 328° |
| 2026-05-07 23:37 | -20.59365 | -43.33522 | 29124 ft | 510 kts | 328° |
| 2026-05-07 23:38 | -20.53155 | -43.37187 | 29130 ft | 510 kts | 328° |
| 2026-05-07 23:38 | -20.46987 | -43.40824 | 29137 ft | 510 kts | 328° |
| 2026-05-07 23:39 | -20.40765 | -43.44484 | 29130 ft | 511 kts | 328° |
| 2026-05-07 23:39 | -20.34540 | -43.48131 | 29135 ft | 511 kts | 328° |
| 2026-05-07 23:40 | -20.31423 | -43.49963 | 29032 ft | 513 kts | 328° |
| 2026-05-07 23:40 | -20.28302 | -43.51802 | 28528 ft | 511 kts | 328° |
| 2026-05-07 23:40 | -20.25198 | -43.53628 | 28116 ft | 512 kts | 328° |
| 2026-05-07 23:40 | -20.22075 | -43.55460 | 26842 ft | 514 kts | 329° |
| 2026-05-07 23:41 | -20.18930 | -43.57304 | 25560 ft | 517 kts | 329° |
| 2026-05-07 23:41 | -20.15785 | -43.59148 | 24708 ft | 510 kts | 330° |
| 2026-05-07 23:41 | -20.12691 | -43.60953 | 23882 ft | 504 kts | 330° |
| 2026-05-07 23:41 | -20.09695 | -43.62657 | 23514 ft | 487 kts | 334° |
| 2026-05-07 23:42 | -20.06620 | -43.63900 | 22990 ft | 461 kts | 341° |
| 2026-05-07 23:42 | -20.03593 | -43.64973 | 21564 ft | 455 kts | 341° |
| 2026-05-07 23:42 | -20.00608 | -43.66007 | 20329 ft | 447 kts | 342° |
| 2026-05-07 23:42 | -19.97678 | -43.67005 | 19165 ft | 438 kts | 343° |
| 2026-05-07 23:43 | -19.94804 | -43.67977 | 18043 ft | 428 kts | 343° |
| 2026-05-07 23:43 | -19.92007 | -43.68925 | 16901 ft | 417 kts | 343° |
| 2026-05-07 23:43 | -19.89277 | -43.69849 | 15785 ft | 407 kts | 343° |
| 2026-05-07 23:43 | -19.86616 | -43.70752 | 14703 ft | 397 kts | 343° |
| 2026-05-07 23:44 | -19.84004 | -43.71644 | 13600 ft | 389 kts | 343° |
| 2026-05-07 23:44 | -19.81496 | -43.72504 | 12430 ft | 381 kts | 343° |
| 2026-05-07 23:44 | -19.79021 | -43.73354 | 11790 ft | 362 kts | 343° |
| 2026-05-07 23:44 | -19.76726 | -43.74145 | 11609 ft | 332 kts | 343° |
| 2026-05-07 23:45 | -19.74624 | -43.74867 | 11478 ft | 305 kts | 343° |
| 2026-05-07 23:45 | -19.72682 | -43.75530 | 11355 ft | 282 kts | 344° |
| 2026-05-07 23:45 | -19.70884 | -43.76141 | 11234 ft | 262 kts | 344° |
| 2026-05-07 23:45 | -19.69184 | -43.76694 | 11114 ft | 250 kts | 350° |
| 2026-05-07 23:46 | -19.67513 | -43.76622 | 11008 ft | 237 kts | 20° |
| 2026-05-07 23:46 | -19.66202 | -43.75670 | 10893 ft | 227 kts | 51° |
| 2026-05-07 23:46 | -19.65580 | -43.74134 | 10550 ft | 233 kts | 83° |
| 2026-05-07 23:46 | -19.65839 | -43.72431 | 10202 ft | 240 kts | 111° |
| 2026-05-07 23:47 | -19.66607 | -43.70845 | 9842 ft | 244 kts | 117° |
| 2026-05-07 23:47 | -19.67454 | -43.69288 | 9454 ft | 248 kts | 117° |
| 2026-05-07 23:47 | -19.68455 | -43.67796 | 9069 ft | 253 kts | 136° |
| 2026-05-07 23:47 | -19.70016 | -43.66926 | 8676 ft | 259 kts | 167° |
| 2026-05-07 23:48 | -19.71802 | -43.66984 | 8312 ft | 262 kts | 198° |
| 2026-05-07 23:48 | -19.73352 | -43.67969 | 7953 ft | 260 kts | 229° |
| 2026-05-07 23:48 | -19.74211 | -43.69597 | 7717 ft | 251 kts | 260° |
| 2026-05-07 23:48 | -19.74185 | -43.71360 | 7476 ft | 233 kts | 290° |
| 2026-05-07 23:49 | -19.73631 | -43.72929 | 7236 ft | 221 kts | 300° |
| 2026-05-07 23:49 | -19.72954 | -43.74347 | 7053 ft | 208 kts | 302° |
| 2026-05-07 23:49 | -19.72282 | -43.75615 | 6986 ft | 188 kts | 301° |
| 2026-05-07 23:49 | -19.72114 | -43.76926 | 6975 ft | 181 kts | 257° |
| 2026-05-07 23:50 | -19.72791 | -43.78042 | 6989 ft | 183 kts | 220° |
| 2026-05-07 23:50 | -19.73805 | -43.78818 | 6994 ft | 183 kts | 214° |
| 2026-05-07 23:50 | -19.74863 | -43.79592 | 7006 ft | 190 kts | 214° |
| 2026-05-07 23:50 | -19.75968 | -43.80400 | 6992 ft | 195 kts | 214° |
| 2026-05-07 23:51 | -19.77035 | -43.81307 | 6755 ft | 197 kts | 235° |
| 2026-05-07 23:51 | -19.77465 | -43.82624 | 6518 ft | 188 kts | 277° |
| 2026-05-07 23:51 | -19.77060 | -43.83877 | 6268 ft | 177 kts | 308° |
| 2026-05-07 23:51 | -19.76336 | -43.84932 | 5942 ft | 178 kts | 314° |
| 2026-05-07 23:52 | -19.75553 | -43.85955 | 5596 ft | 179 kts | 316° |
| 2026-05-07 23:52 | -19.74715 | -43.86920 | 5256 ft | 176 kts | 323° |
| 2026-05-07 23:52 | -19.73797 | -43.87767 | 4921 ft | 174 kts | 328° |
| 2026-05-07 23:52 | -19.72801 | -43.88482 | 4604 ft | 171 kts | 334° |
| 2026-05-07 23:53 | -19.71789 | -43.89127 | 4322 ft | 167 kts | 335° |
| 2026-05-07 23:53 | -19.70841 | -43.89802 | 4078 ft | 168 kts | 322° |
| 2026-05-07 23:53 | -19.70049 | -43.90744 | 3841 ft | 168 kts | 315° |
| 2026-05-07 23:53 | -19.69230 | -43.91588 | 3658 ft | 165 kts | 324° |
| 2026-05-07 23:54 | -19.68317 | -43.92352 | 3579 ft | 164 kts | 323° |
| 2026-05-07 23:54 | -19.67411 | -43.93230 | 3905 ft | 185 kts | 320° |
| 2026-05-07 23:54 | -19.66442 | -43.94249 | 4384 ft | 211 kts | 320° |
| 2026-05-07 23:54 | -19.65381 | -43.95335 | 4431 ft | 206 kts | 322° |
| 2026-05-07 23:55 | -19.64371 | -43.96320 | 4418 ft | 185 kts | 322° |
| 2026-05-07 23:55 | -19.63464 | -43.97199 | 4555 ft | 176 kts | 323° |
| 2026-05-07 23:55 | -19.62545 | -43.98089 | 4678 ft | 176 kts | 324° |
| 2026-05-07 23:55 | -19.61509 | -43.98610 | 4710 ft | 165 kts | 359° |
| 2026-05-07 23:56 | -19.60425 | -43.98378 | 4712 ft | 158 kts | 32° |
| 2026-05-07 23:56 | -19.59701 | -43.97533 | 4707 ft | 159 kts | 65° |
| 2026-05-07 23:56 | -19.59601 | -43.96365 | 4724 ft | 164 kts | 101° |
| 2026-05-07 23:56 | -19.60248 | -43.95335 | 4929 ft | 180 kts | 137° |
| 2026-05-07 23:57 | -19.61198 | -43.94493 | 5596 ft | 179 kts | 127° |
| 2026-05-07 23:57 | -19.61911 | -43.93359 | 6003 ft | 190 kts | 112° |
| 2026-05-07 23:57 | -19.62529 | -43.92099 | 6548 ft | 195 kts | 112° |
| 2026-05-07 23:57 | -19.63175 | -43.90793 | 6950 ft | 205 kts | 113° |
| 2026-05-07 23:58 | -19.63835 | -43.89465 | 7005 ft | 203 kts | 113° |
| 2026-05-07 23:58 | -19.64490 | -43.88147 | 7008 ft | 202 kts | 113° |
| 2026-05-07 23:58 | -19.65136 | -43.86842 | 7008 ft | 201 kts | 113° |
| 2026-05-07 23:58 | -19.65763 | -43.85586 | 7012 ft | 184 kts | 113° |
| 2026-05-07 23:59 | -19.66338 | -43.84438 | 7003 ft | 169 kts | 112° |
| 2026-05-07 23:59 | -19.66873 | -43.83369 | 7004 ft | 162 kts | 112° |
| 2026-05-07 23:59 | -19.67403 | -43.82316 | 7009 ft | 162 kts | 112° |
| 2026-05-07 23:59 | -19.67935 | -43.81258 | 7012 ft | 163 kts | 112° |
| 2026-05-08 00:00 | -19.68468 | -43.80203 | 7007 ft | 163 kts | 112° |
| 2026-05-08 00:00 | -19.68824 | -43.79503 | 6980 ft | 163 kts | 112° |
| 2026-05-08 00:00 | -19.69367 | -43.78438 | 6983 ft | 164 kts | 112° |
| 2026-05-08 00:00 | -19.70075 | -43.77054 | 6980 ft | 160 kts | 115° |
| 2026-05-08 00:01 | -19.70904 | -43.76265 | 6958 ft | 168 kts | 159° |
| 2026-05-08 00:01 | -19.72072 | -43.76316 | 6975 ft | 176 kts | 206° |
| 2026-05-08 00:01 | -19.72940 | -43.77230 | 6989 ft | 181 kts | 251° |
| 2026-05-08 00:01 | -19.73144 | -43.78522 | 7011 ft | 179 kts | 268° |
| 2026-05-08 00:02 | -19.73314 | -43.79383 | 6983 ft | 181 kts | 256° |
| 2026-05-08 00:02 | -19.73743 | -43.80644 | 6777 ft | 181 kts | 252° |
| 2026-05-08 00:02 | -19.74222 | -43.81883 | 6473 ft | 186 kts | 251° |
| 2026-05-08 00:02 | -19.74491 | -43.83735 | 5727 ft | 198 kts | 291° |
| 2026-05-08 00:03 | -19.73869 | -43.85021 | 5212 ft | 198 kts | 305° |
| 2026-05-08 00:03 | -19.73420 | -43.85901 | 4870 ft | 203 kts | 302° |
| 2026-05-08 00:03 | -19.72606 | -43.87611 | 4501 ft | 191 kts | 301° |
| 2026-05-08 00:03 | -19.71979 | -43.88797 | 4305 ft | 177 kts | 309° |
| 2026-05-08 00:04 | -19.71478 | -43.89459 | 4171 ft | 170 kts | 320° |
| 2026-05-08 00:04 | -19.70609 | -43.90274 | 4046 ft | 165 kts | 328° |
| 2026-05-08 00:04 | -19.69682 | -43.90990 | 3878 ft | 164 kts | 328° |
| 2026-05-08 00:04 | -19.68804 | -43.91765 | 3718 ft | 160 kts | 322° |
| 2026-05-08 00:05 | -19.68019 | -43.92529 | 3611 ft | 151 kts | 321° |
| 2026-05-08 00:05 | -19.67245 | -43.93257 | 3431 ft | 147 kts | 321° |
| 2026-05-08 00:05 | -19.66473 | -43.93953 | 3206 ft | 145 kts | 320° |
| 2026-05-08 00:05 | -19.65730 | -43.94668 | 3056 ft | 143 kts | 319° |
| 2026-05-08 00:06 | -19.64996 | -43.95364 | 2941 ft | 144 kts | 321° |
| 2026-05-08 00:06 | -19.64262 | -43.96051 | 2823 ft | 133 kts | 321° |
| 2026-05-08 00:06 | -19.63632 | -43.96629 | 2814 ft | 106 kts | 319° |
| 2026-05-08 00:06 | -19.63183 | -43.97045 | 2812 ft | 64 kts | 317° |
| 2026-05-08 00:07 | -19.62985 | -43.97218 | 2813 ft | 24 kts | 346° |
| 2026-05-08 00:07 | -19.62866 | -43.97140 | 2813 ft | 17 kts | 46° |
| 2026-05-08 00:07 | -19.62806 | -43.97069 | 2812 ft | 9 kts | 50° |
| 2026-05-08 00:07 | -19.62768 | -43.97021 | 2813 ft | 8 kts | 50° |
| 2026-05-08 00:08 | -19.62743 | -43.96990 | 2812 ft | 0 kts | 50° |
| 2026-05-08 00:08 | -19.62742 | -43.96988 | 2812 ft | 0 kts | 50° |